DW9324 Weather Reports


time (UTC)temp
F
wind
direction
speed
knots
gust
knots
rain 1hr
in
rain 24hr
in
rain mn
in
humidity
%
barometer
mb
20260906120007 73 227 0.0 0.0 0.00 0.21 0.00 96 1011.3
20260906114507 72 227 0.0 0.0 0.00 0.21 0.00 97 1011.3
20260906113004 72 227 0.0 0.0 0.00 0.21 0.00 96 1011.0
20260906111502 72 227 0.0 0.0 0.00 0.21 0.00 96 1010.9
20260906110003 72 227 0.0 0.9 0.00 0.21 0.00 97 1010.7
20260906104600 72 227 0.0 0.0 0.00 0.21 0.00 97 1010.6
20260906103059 72 227 0.0 0.9 0.00 0.21 0.00 97 1010.4
20260906101556 72 227 0.0 0.0 0.00 0.21 0.00 97 1010.3
20260906100054 72 227 0.0 0.0 0.00 0.21 0.00 98 1010.1
20260906094554 72 227 0.0 0.0 0.00 0.21 0.00 98 1009.9
20260906093107 72 227 0.0 0.0 0.00 0.21 0.00 98 1009.7
20260906091556 72 227 0.0 0.0 0.00 0.21 0.00 98 1009.5
20260906090052 72 227 0.0 0.0 0.00 0.21 0.00 98 1009.3
20260906084551 72 227 0.0 0.0 0.00 0.21 0.00 98 1009.1
20260906083051 72 227 0.0 0.0 0.00 0.21 0.00 98 1009.2
20260906081554 72 227 0.0 0.0 0.00 0.21 0.00 98 1009.2
20260906080049 72 227 0.0 0.0 0.00 0.21 0.00 98 1009.0
20260906074550 72 227 0.0 0.0 0.00 0.21 0.00 98 1008.9
20260906073048 72 227 0.0 0.0 0.00 0.21 0.00 98 1008.7
20260906071557 72 227 0.0 0.0 0.00 0.21 0.00 98 1008.5
20260906070045 72 227 0.0 0.0 0.00 0.21 0.00 98 1008.7
20260906064544 72 227 0.0 0.0 0.00 0.21 0.00 98 1008.9
20260906063043 72 227 0.0 0.0 0.00 0.21 0.00 98 1008.9
20260906061542 73 227 0.0 0.0 0.00 0.21 0.00 98 1008.9
20260906060041 73 227 0.0 0.0 0.00 0.21 0.00 98 1009.0
20260906054538 73 227 0.0 0.0 0.00 0.21 0.00 98 1009.2
20260906053038 73 227 0.0 0.0 0.00 0.21 0.00 98 1009.4
20260906051542 73 227 0.0 0.0 0.00 0.21 0.00 98 1009.6
20260906050056 74 227 0.0 0.0 0.00 0.21 0.00 98 1009.6
20260906044531 74 227 0.0 0.0 0.00 0.21 0.00 98 1009.7
20260906043031 74 227 0.0 0.0 0.00 0.21 0.00 98 1009.9
20260906041530 74 227 0.0 0.0 0.00 0.21 0.00 98 1009.9
20260906040028 74 227 0.0 0.0 0.00 0.21 0.21 98 1010.0
20260906034538 74 227 0.0 0.0 0.00 0.21 0.21 97 1009.8
20260906033029 74 227 0.0 0.0 0.00 0.21 0.21 97 1009.9
20260906031528 74 227 0.0 0.0 0.00 0.21 0.21 97 1010.0
20260906030027 74 227 0.0 0.0 0.00 0.21 0.21 97 1009.9
20260906024525 74 227 0.0 0.0 0.00 0.21 0.21 97 1009.8
20260906023027 74 227 0.0 0.0 0.00 0.21 0.21 97 1009.8
20260906021525 74 227 0.0 0.0 0.00 0.21 0.21 97 1009.6
20260906020027 74 227 0.0 0.0 0.00 0.21 0.21 97 1009.7
20260906014529 75 227 0.0 0.0 0.00 0.21 0.21 97 1009.6
20260906013024 75 227 0.0 0.0 0.00 0.21 0.21 97 1009.7
20260906011523 75 227 0.0 0.0 0.00 0.21 0.21 97 1009.4
20260906010022 75 227 0.0 0.0 0.00 0.21 0.21 97 1009.5
20260906004523 75 227 0.0 0.0 0.00 0.21 0.21 97 1009.2
20260906003021 75 227 0.0 0.0 0.00 0.21 0.21 97 1009.2
20260906001523 75 227 0.0 0.0 0.00 0.21 0.21 97 1009.0
20260906000024 75 227 0.0 0.0 0.00 0.21 0.21 96 1008.8
20260905234520 76 227 0.0 0.0 0.00 0.21 0.21 97 1008.5
20260905233025 76 227 0.0 0.0 0.00 0.21 0.21 96 1008.2
20260905231519 76 227 0.0 0.0 0.00 0.21 0.21 96 1008.1
20260905230018 76 227 0.0 0.0 0.00 0.21 0.21 96 1007.8
20260905224517 76 227 0.0 0.0 0.00 0.21 0.21 96 1007.7
20260905223017 75 227 0.0 0.0 0.00 0.21 0.21 96 1008.0
20260905221516 75 227 0.0 0.9 0.00 0.21 0.21 96 1008.1
20260905220016 75 227 0.0 0.0 0.00 0.21 0.21 96 1008.2
20260905214515 75 227 0.0 0.0 0.00 0.21 0.21 96 1008.0
20260905213018 75 227 0.0 0.0 0.00 0.21 0.21 96 1007.8
20260905211514 75 163 0.0 0.0 0.00 0.21 0.21 96 1007.6
20260905210014 75 164 0.0 0.0 0.00 0.21 0.21 96 1007.6
20260905204513 75 164 0.0 0.0 0.11 0.21 0.21 95 1007.5
20260905203014 75 164 0.0 0.0 0.21 0.21 0.21 94 1007.5
20260905201512 75 161 0.0 0.0 0.21 0.21 0.21 93 1007.3
20260905200011 76 111 0.0 0.9 0.21 0.21 0.21 90 1008.1
20260905194510 81 232 0.0 1.7 0.08 0.08 0.08 78 1009.1
20260905193016 82 38 1.7 3.5 0.00 0.00 0.00 71 1008.5
20260905191509 85 35 2.6 12.2 0.00 0.00 0.00 67 1007.9
20260905190108 94 251 0.0 0.0 0.00 0.00 0.00 57 1007.4
20260905184514 96 242 0.0 0.9 0.00 0.00 0.00 56 1007.1
20260905183005 98 103 0.0 1.7 0.00 0.00 0.00 51 1007.3
20260905181510 98 219 0.0 3.5 0.00 0.00 0.00 53 1007.5
20260905180101 99 89 0.0 0.9 0.00 0.00 0.00 53 1007.8
20260905174559 97 345 0.0 1.7 0.00 0.00 0.00 55 1008.2
20260905173107 97 50 0.0 1.7 0.00 0.00 0.00 55 1008.7
20260905171551 96 150 0.0 2.6 0.00 0.00 0.00 57 1008.9
20260905170050 96 54 0.0 2.6 0.00 0.00 0.00 58 1009.2
20260905164548 96 51 0.0 1.7 0.00 0.00 0.00 56 1009.4
20260905163052 95 106 0.0 2.6 0.00 0.00 0.00 57 1009.5
20260905161545 96 186 0.0 0.0 0.00 0.00 0.00 57 1009.6
20260905160050 93 60 0.0 1.7 0.00 0.00 0.00 60 1009.9
20260905154545 92 140 0.0 1.7 0.00 0.00 0.00 62 1010.1
20260905153035 90 80 0.0 1.7 0.00 0.00 0.00 65 1010.3
20260905151532 89 96 0.0 0.9 0.00 0.00 0.00 68 1010.5
20260905150030 88 160 0.0 0.9 0.00 0.00 0.00 71 1010.4
20260905144540 86 124 0.0 0.9 0.00 0.00 0.00 73 1010.5
20260905143024 84 128 0.0 0.9 0.00 0.00 0.00 77 1010.5
20260905141528 83 121 0.0 0.9 0.00 0.00 0.00 80 1010.4
20260905140013 82 86 0.0 0.9 0.00 0.00 0.00 81 1010.4
20260905134516 81 170 0.0 0.0 0.00 0.00 0.00 84 1010.4
20260905133009 80 132 0.0 0.9 0.00 0.00 0.00 85 1010.5
20260905131507 79 229 0.0 1.7 0.00 0.00 0.00 87 1010.4
20260905130005 78 109 0.0 1.7 0.00 0.00 0.00 90 1010.4
20260905124505 76 150 0.0 0.0 0.00 0.00 0.00 91 1010.5
20260905123004 75 217 0.0 0.9 0.00 0.00 0.00 92 1010.6
20260905121504 74 141 0.0 0.0 0.00 0.00 0.00 94 1010.6